createdAt,value
2022-08-17T00:01:52.520Z,21.76
2022-08-17T00:04:23.207Z,21.70
2022-08-17T00:06:53.496Z,21.67
2022-08-17T00:09:23.747Z,21.62
2022-08-17T00:12:03.928Z,21.58
2022-08-17T00:14:46.457Z,21.54
2022-08-17T00:17:16.574Z,21.50
2022-08-17T00:19:47.101Z,21.47
2022-08-17T00:22:31.004Z,21.45
2022-08-17T00:25:07.504Z,21.42
2022-08-17T00:27:38.564Z,21.34
2022-08-17T00:30:14.766Z,21.36
2022-08-17T00:33:12.121Z,21.33
2022-08-17T00:35:37.953Z,21.29
2022-08-17T00:38:10.018Z,21.24
2022-08-17T00:40:44.969Z,21.27
2022-08-17T00:43:21.367Z,21.28
2022-08-17T00:45:54.238Z,21.25
2022-08-17T00:48:29.293Z,21.24
2022-08-17T00:53:56.490Z,21.21
2022-08-17T00:56:32.512Z,21.20
2022-08-17T00:59:14.568Z,21.17
2022-08-17T01:01:48.053Z,21.14
2022-08-17T01:04:19.667Z,21.16
2022-08-17T01:06:50.947Z,21.16
2022-08-17T01:09:21.782Z,21.15
2022-08-17T01:11:52.808Z,21.16
2022-08-17T01:14:23.338Z,21.13
2022-08-17T01:16:58.493Z,21.13
2022-08-17T01:19:32.387Z,21.14
2022-08-17T01:22:09.376Z,21.09
2022-08-17T01:24:45.057Z,21.10
2022-08-17T01:27:16.570Z,21.09
2022-08-17T01:29:53.270Z,21.08
2022-08-17T01:32:23.477Z,21.02
2022-08-17T01:34:53.568Z,20.99
2022-08-17T01:37:33.344Z,20.94
2022-08-17T01:40:12.561Z,20.92
2022-08-17T01:42:49.827Z,20.91
2022-08-17T01:45:23.322Z,20.87
2022-08-17T01:47:54.807Z,20.84
2022-08-17T01:50:28.527Z,20.81
2022-08-17T01:53:02.509Z,20.73
2022-08-17T01:55:41.168Z,20.78
2022-08-17T01:58:11.362Z,20.77
2022-08-17T02:00:52.407Z,20.75
2022-08-17T02:03:32.875Z,20.71
2022-08-17T02:06:05.237Z,20.75
2022-08-17T02:08:36.974Z,20.77
2022-08-17T02:11:15.857Z,20.76
2022-08-17T02:13:46.514Z,20.78
2022-08-17T02:16:16.996Z,20.70
2022-08-17T02:18:47.425Z,20.68
2022-08-17T02:21:17.698Z,20.66
2022-08-17T02:23:50.745Z,20.62
2022-08-17T02:26:25.814Z,20.55
2022-08-17T02:28:57.116Z,20.56
2022-08-17T02:31:27.227Z,20.56
2022-08-17T02:34:04.141Z,20.55
2022-08-17T02:36:39.177Z,20.52
2022-08-17T02:39:11.933Z,20.50
2022-08-17T02:41:45.143Z,20.48
2022-08-17T02:44:15.302Z,20.51
2022-08-17T02:47:05.544Z,20.45
2022-08-17T02:49:35.722Z,20.41
2022-08-17T02:52:06.802Z,20.38
2022-08-17T02:54:41.099Z,20.37
2022-08-17T02:57:14.712Z,20.20
2022-08-17T02:59:49.071Z,20.26
2022-08-17T03:02:19.463Z,20.24
2022-08-17T03:04:49.499Z,20.27
2022-08-17T03:07:20.468Z,20.26
2022-08-17T03:09:54.084Z,20.26
2022-08-17T03:12:26.854Z,20.27
2022-08-17T03:14:56.926Z,20.24
2022-08-17T03:17:27.144Z,20.21
2022-08-17T03:19:59.697Z,20.19
2022-08-17T03:22:37.357Z,20.21
2022-08-17T03:25:11.087Z,20.22
2022-08-17T03:27:44.664Z,20.20
2022-08-17T03:30:22.792Z,20.22
2022-08-17T03:32:55.357Z,20.25
2022-08-17T03:35:28.132Z,20.28
2022-08-17T03:38:00.238Z,20.31
2022-08-17T03:40:55.677Z,20.33
2022-08-17T03:43:26.012Z,20.43
2022-08-17T03:46:08.637Z,20.43
2022-08-17T03:49:10.211Z,20.47
2022-08-17T03:51:52.777Z,20.46
2022-08-17T03:54:35.270Z,20.48
2022-08-17T03:57:07.371Z,20.53
2022-08-17T03:59:42.224Z,20.58
2022-08-17T04:02:18.578Z,20.65
2022-08-17T04:04:51.023Z,20.71
2022-08-17T04:07:22.277Z,20.76
2022-08-17T04:09:53.245Z,20.90
2022-08-17T04:12:31.166Z,20.97
2022-08-17T04:15:04.044Z,21.03
2022-08-17T04:17:34.977Z,21.13
2022-08-17T04:20:13.637Z,21.14
2022-08-17T04:22:58.687Z,21.12
2022-08-17T04:25:30.129Z,21.15
2022-08-17T04:28:00.342Z,21.31
2022-08-17T04:30:34.977Z,21.45
2022-08-17T04:33:08.892Z,21.49
2022-08-17T04:35:41.598Z,21.60
2022-08-17T04:38:14.232Z,21.70
2022-08-17T04:40:57.498Z,21.78
2022-08-17T04:43:29.181Z,21.91
2022-08-17T04:46:03.752Z,21.98
2022-08-17T04:48:40.963Z,22.08
2022-08-17T04:51:14.047Z,22.13
2022-08-17T04:53:45.976Z,22.19
2022-08-17T04:56:28.747Z,22.36
2022-08-17T04:59:00.994Z,22.52
2022-08-17T05:01:37.061Z,22.88
2022-08-17T05:04:20.994Z,23.77
2022-08-17T05:07:00.547Z,25.17
2022-08-17T05:09:31.118Z,25.84
2022-08-17T05:12:03.669Z,26.45
2022-08-17T05:14:34.010Z,27.03
2022-08-17T05:17:09.648Z,27.21
2022-08-17T05:19:41.899Z,27.91
2022-08-17T05:22:12.041Z,28.03
2022-08-17T05:24:43.717Z,28.14
2022-08-17T05:27:24.098Z,28.06
2022-08-17T05:29:58.745Z,28.56
2022-08-17T05:32:37.951Z,29.20
2022-08-17T05:35:11.089Z,29.50
2022-08-17T05:37:41.314Z,29.65
2022-08-17T05:40:13.409Z,29.52
2022-08-17T05:42:44.031Z,28.91
2022-08-17T05:45:15.859Z,28.67
2022-08-17T05:47:56.423Z,28.93
2022-08-17T05:50:31.559Z,29.08
2022-08-17T05:53:08.987Z,29.01
2022-08-17T05:55:48.260Z,28.78
2022-08-17T05:58:27.495Z,29.04
2022-08-17T06:01:05.219Z,29.59
2022-08-17T06:03:55.113Z,29.68
2022-08-17T06:06:38.078Z,29.72
2022-08-17T06:09:28.865Z,29.89
2022-08-17T06:12:14.476Z,30.19
2022-08-17T06:15:04.295Z,30.77
2022-08-17T06:17:37.506Z,30.64
2022-08-17T06:20:16.851Z,31.18
2022-08-17T06:22:52.728Z,31.12
2022-08-17T06:25:32.599Z,31.35
2022-08-17T06:28:07.482Z,31.35
2022-08-17T06:31:00.836Z,31.52
2022-08-17T06:33:35.045Z,31.86
2022-08-17T06:36:23.689Z,32.15
2022-08-17T06:39:06.119Z,32.28
2022-08-17T06:41:45.853Z,32.85
2022-08-17T06:44:50.204Z,33.04
2022-08-17T06:47:15.837Z,33.34
2022-08-17T06:50:07.255Z,33.66
2022-08-17T06:52:48.161Z,33.63
2022-08-17T06:55:24.057Z,33.41
2022-08-17T06:58:05.815Z,33.55
2022-08-17T07:00:48.832Z,33.54
2022-08-17T07:03:31.782Z,33.36
2022-08-17T07:06:08.326Z,33.58
2022-08-17T07:08:51.474Z,33.64
2022-08-17T07:11:28.482Z,33.12
2022-08-17T07:14:07.413Z,33.73
2022-08-17T07:16:44.117Z,33.96
2022-08-17T07:19:16.941Z,34.29
2022-08-17T07:21:56.633Z,34.93
2022-08-17T07:24:39.348Z,34.97
2022-08-17T07:27:17.376Z,34.96
2022-08-17T07:29:53.777Z,34.61
2022-08-17T07:32:31.691Z,34.64
2022-08-17T07:35:17.942Z,34.65
2022-08-17T07:37:54.210Z,34.83
2022-08-17T07:40:39.605Z,34.79
2022-08-17T07:43:29.629Z,35.40
2022-08-17T07:46:35.362Z,35.49
2022-08-17T07:49:35.418Z,34.92
2022-08-17T07:52:47.613Z,35.72
2022-08-17T07:54:59.211Z,36.05
2022-08-17T07:57:40.760Z,36.02
2022-08-17T08:00:31.658Z,36.05
2022-08-17T08:03:17.674Z,35.88
2022-08-17T08:05:54.645Z,36.20
2022-08-17T08:08:29.835Z,36.42
2022-08-17T08:11:11.479Z,36.82
2022-08-17T08:13:46.348Z,36.41
2022-08-17T08:16:24.545Z,36.61
2022-08-17T08:18:59.974Z,36.31
2022-08-17T08:21:49.429Z,36.60
2022-08-17T08:24:48.487Z,35.64
2022-08-17T08:27:30.669Z,36.12
2022-08-17T08:30:06.875Z,36.20
2022-08-17T08:32:54.347Z,35.98
2022-08-17T08:35:34.416Z,36.06
2022-08-17T08:38:17.467Z,35.91
2022-08-17T08:41:00.072Z,36.09
2022-08-17T08:43:40.510Z,36.01
2022-08-17T08:46:26.551Z,36.13
2022-08-17T08:50:01.276Z,36.19
2022-08-17T08:52:37.769Z,36.37
2022-08-17T08:55:19.744Z,36.52
2022-08-17T08:57:58.373Z,36.43
2022-08-17T09:00:34.610Z,36.47
2022-08-17T09:03:51.836Z,36.45
2022-08-17T09:06:39.356Z,36.40
2022-08-17T09:09:26.403Z,36.62
2022-08-17T09:12:05.179Z,36.70
2022-08-17T09:14:46.610Z,36.91
2022-08-17T09:17:22.066Z,36.94
2022-08-17T09:20:01.035Z,37.11
2022-08-17T09:22:38.623Z,36.74
2022-08-17T09:25:13.515Z,36.86
2022-08-17T09:28:03.759Z,36.46
2022-08-17T09:30:41.931Z,36.68
2022-08-17T09:33:14.388Z,36.60
2022-08-17T09:35:51.320Z,36.71
2022-08-17T09:38:31.830Z,36.53
2022-08-17T09:41:16.666Z,36.98
2022-08-17T09:43:55.713Z,37.20
2022-08-17T09:46:31.571Z,37.39
2022-08-17T09:49:09.863Z,37.08
2022-08-17T09:51:48.746Z,37.54
2022-08-17T09:54:39.508Z,37.38
2022-08-17T09:57:32.151Z,37.07
2022-08-17T10:00:20.093Z,36.97
2022-08-17T10:03:18.106Z,37.42
2022-08-17T10:05:56.888Z,37.37
2022-08-17T10:08:42.210Z,36.90
2022-08-17T10:11:22.523Z,37.13
2022-08-17T10:14:36.429Z,37.25
2022-08-17T10:17:11.331Z,36.83
2022-08-17T10:19:50.894Z,37.41
2022-08-17T10:22:41.259Z,37.46
2022-08-17T10:25:53.479Z,36.58
2022-08-17T10:28:29.433Z,36.66
2022-08-17T10:31:33.201Z,37.08
2022-08-17T10:34:21.345Z,37.13
2022-08-17T10:36:58.814Z,36.34
2022-08-17T10:39:51.932Z,36.06
2022-08-17T10:42:33.374Z,36.60
2022-08-17T10:45:08.377Z,36.45
2022-08-17T10:48:06.150Z,36.54
2022-08-17T10:50:50.646Z,36.92
2022-08-17T10:53:52.467Z,37.32
2022-08-17T10:56:28.178Z,37.24
2022-08-17T10:59:02.676Z,37.70
2022-08-17T11:02:03.358Z,37.43
2022-08-17T11:04:50.147Z,37.53
2022-08-17T11:07:28.587Z,37.69
2022-08-17T11:10:18.664Z,37.45
2022-08-17T11:12:57.178Z,37.58
2022-08-17T11:15:45.257Z,37.90
2022-08-17T11:18:35.907Z,37.81
2022-08-17T11:21:21.258Z,37.55
2022-08-17T11:24:16.730Z,37.42
2022-08-17T11:27:01.718Z,36.86
2022-08-17T11:29:36.900Z,36.70
2022-08-17T11:32:30.227Z,36.44
2022-08-17T11:35:13.753Z,35.57
2022-08-17T11:37:59.135Z,35.64
2022-08-17T11:41:05.536Z,35.99
2022-08-17T11:43:57.925Z,36.43
2022-08-17T11:46:57.197Z,36.63
2022-08-17T11:49:52.366Z,36.91
2022-08-17T11:52:39.051Z,37.08
2022-08-17T11:55:34.474Z,37.21
2022-08-17T11:58:06.531Z,37.18
2022-08-17T12:00:56.656Z,37.24
2022-08-17T12:03:54.479Z,37.44
2022-08-17T12:06:57.012Z,37.36
2022-08-17T12:09:31.570Z,36.84
2022-08-17T12:12:13.335Z,36.88
2022-08-17T12:17:42.939Z,37.33
2022-08-17T12:20:17.972Z,37.61
2022-08-17T12:22:57.731Z,37.66
2022-08-17T12:25:35.853Z,37.51
2022-08-17T12:28:23.909Z,37.51
2022-08-17T12:30:55.298Z,37.58
2022-08-17T12:33:28.963Z,37.54
2022-08-17T12:36:03.097Z,37.76
2022-08-17T12:38:38.869Z,37.60
2022-08-17T12:41:25.679Z,37.36
2022-08-17T12:44:02.506Z,37.32
2022-08-17T12:46:36.419Z,36.89
2022-08-17T12:49:25.683Z,36.75
2022-08-17T12:52:14.061Z,36.41
2022-08-17T12:54:52.711Z,36.15
2022-08-17T12:57:25.291Z,36.57
2022-08-17T13:00:01.362Z,36.33
2022-08-17T13:02:49.348Z,36.62
2022-08-17T13:05:25.899Z,36.44
2022-08-17T13:07:57.432Z,36.78
2022-08-17T13:10:34.043Z,36.72
2022-08-17T13:13:06.308Z,36.33
2022-08-17T13:15:46.170Z,35.88
2022-08-17T13:18:39.130Z,36.01
2022-08-17T13:21:14.051Z,36.33
2022-08-17T13:23:53.555Z,36.61
2022-08-17T13:26:32.686Z,36.64
2022-08-17T13:29:04.019Z,36.23
2022-08-17T13:31:52.413Z,36.03
2022-08-17T13:35:11.553Z,35.75
2022-08-17T13:37:33.829Z,35.92
2022-08-17T13:40:22.600Z,35.82
2022-08-17T13:42:56.982Z,35.73
2022-08-17T13:45:50.634Z,35.39
2022-08-17T13:48:28.087Z,35.39
2022-08-17T13:51:16.460Z,35.84
2022-08-17T13:54:10.662Z,35.91
2022-08-17T13:56:48.322Z,36.06
2022-08-17T13:59:54.317Z,36.28
2022-08-17T14:02:28.792Z,36.45
2022-08-17T14:05:02.019Z,36.71
2022-08-17T14:07:38.725Z,36.70
2022-08-17T14:10:14.480Z,36.51
2022-08-17T14:12:46.990Z,36.63
2022-08-17T14:15:22.568Z,36.64
2022-08-17T14:17:53.283Z,36.54
2022-08-17T14:20:25.341Z,36.49
2022-08-17T14:22:57.315Z,36.49
2022-08-17T14:25:30.483Z,36.52
2022-08-17T14:28:01.437Z,36.28
2022-08-17T14:30:35.772Z,36.07
2022-08-17T14:33:06.111Z,35.97
2022-08-17T14:35:36.754Z,36.10
2022-08-17T14:38:06.911Z,36.25
2022-08-17T14:40:40.043Z,36.16
2022-08-17T14:43:10.296Z,36.30
2022-08-17T14:45:43.008Z,36.38
2022-08-17T14:48:13.443Z,36.37
2022-08-17T14:50:46.382Z,36.42
2022-08-17T14:53:21.649Z,36.42
2022-08-17T14:55:53.364Z,36.42
2022-08-17T14:58:23.769Z,36.35
2022-08-17T15:00:56.874Z,36.37
2022-08-17T15:03:27.181Z,36.04
2022-08-17T15:05:57.460Z,36.15
2022-08-17T15:08:27.910Z,36.00
2022-08-17T15:10:58.191Z,35.85
2022-08-17T15:13:32.083Z,35.63
2022-08-17T15:16:13.911Z,35.88
2022-08-17T15:18:44.111Z,35.77
2022-08-17T15:21:15.036Z,35.77
2022-08-17T15:23:45.336Z,35.93
2022-08-17T15:26:16.995Z,35.90
2022-08-17T15:28:48.986Z,35.74
2022-08-17T15:31:32.378Z,35.56
2022-08-17T15:34:04.172Z,35.53
2022-08-17T15:36:49.154Z,35.47
2022-08-17T15:39:19.802Z,35.55
2022-08-17T15:41:58.508Z,35.41
2022-08-17T15:44:32.503Z,35.48
2022-08-17T15:47:08.581Z,35.36
2022-08-17T15:49:41.997Z,35.22
2022-08-17T15:52:19.660Z,35.19
2022-08-17T15:54:53.175Z,35.20
2022-08-17T15:57:24.192Z,35.18
2022-08-17T15:59:58.498Z,35.20
2022-08-17T16:03:46.814Z,34.86
2022-08-17T16:05:30.182Z,34.95
2022-08-17T16:08:02.430Z,34.92
2022-08-17T16:10:34.747Z,34.92
2022-08-17T16:13:05.989Z,34.94
2022-08-17T16:15:56.989Z,34.92
2022-08-17T16:18:32.639Z,34.84
2022-08-17T16:21:24.576Z,34.77
2022-08-17T16:23:56.728Z,34.52
2022-08-17T16:26:27.594Z,34.52
2022-08-17T16:28:58.652Z,34.51
2022-08-17T16:31:29.152Z,34.36
2022-08-17T16:34:17.670Z,34.42
2022-08-17T16:36:53.560Z,34.35
2022-08-17T16:39:27.026Z,34.29
2022-08-17T16:41:57.671Z,34.19
2022-08-17T16:44:30.542Z,34.08
2022-08-17T16:47:02.003Z,34.00
2022-08-17T16:49:36.874Z,33.90
2022-08-17T16:52:10.831Z,33.77
2022-08-17T16:54:44.080Z,33.74
2022-08-17T16:57:16.082Z,33.75
2022-08-17T16:59:51.599Z,33.76
2022-08-17T17:02:28.698Z,33.62
2022-08-17T17:05:06.189Z,33.50
2022-08-17T17:07:51.893Z,33.41
2022-08-17T17:10:26.474Z,33.29
2022-08-17T17:13:02.006Z,33.13
2022-08-17T17:15:51.830Z,33.07
2022-08-17T17:18:26.018Z,32.94
2022-08-17T17:21:01.273Z,32.82
2022-08-17T17:23:48.013Z,32.72
2022-08-17T17:26:31.854Z,32.60
2022-08-17T17:29:47.364Z,32.48
2022-08-17T17:32:23.313Z,32.32
2022-08-17T17:34:59.557Z,32.15
2022-08-17T17:37:37.295Z,31.96
2022-08-17T17:40:15.518Z,31.81
2022-08-17T17:42:47.244Z,31.61
2022-08-17T17:45:23.490Z,31.49
2022-08-17T17:47:53.779Z,31.34
2022-08-17T17:50:32.531Z,31.24
2022-08-17T17:53:09.023Z,31.13
2022-08-17T17:55:50.086Z,30.99
2022-08-17T17:58:35.861Z,30.88
2022-08-17T18:01:20.763Z,30.70
2022-08-17T18:04:15.667Z,30.59
2022-08-17T18:07:04.539Z,30.45
2022-08-17T18:10:01.143Z,30.34
2022-08-17T18:12:39.125Z,30.22
2022-08-17T18:15:29.630Z,30.10
2022-08-17T18:18:37.978Z,29.98
2022-08-17T18:21:15.919Z,29.84
2022-08-17T18:23:55.359Z,29.83
2022-08-17T18:26:45.023Z,29.88
2022-08-17T18:29:23.985Z,29.81
2022-08-17T18:32:16.043Z,29.92
2022-08-17T18:34:48.719Z,29.98
2022-08-17T18:37:34.395Z,30.28
2022-08-17T18:40:29.696Z,30.27
2022-08-17T18:43:14.235Z,30.21
2022-08-17T18:45:48.528Z,30.24
2022-08-17T18:48:33.135Z,30.25
2022-08-17T18:51:39.707Z,30.23
2022-08-17T18:54:19.013Z,30.09
2022-08-17T18:56:55.218Z,30.11
2022-08-17T18:59:42.510Z,30.03
2022-08-17T19:02:45.657Z,30.04
2022-08-17T19:05:30.493Z,29.85
2022-08-17T19:08:20.606Z,29.68
2022-08-17T19:10:54.605Z,29.73
2022-08-17T19:13:28.625Z,29.44
2022-08-17T19:16:14.104Z,29.41
2022-08-17T19:18:52.108Z,29.54
2022-08-17T19:21:26.843Z,29.44
2022-08-17T19:24:01.985Z,29.43
2022-08-17T19:26:53.662Z,29.31
2022-08-17T19:29:29.347Z,29.01
2022-08-17T19:32:02.744Z,28.87
2022-08-17T19:34:35.710Z,28.74
2022-08-17T19:37:09.736Z,28.78
2022-08-17T19:39:59.705Z,28.68
2022-08-17T19:42:42.560Z,28.51
2022-08-17T19:45:36.151Z,28.55
2022-08-17T19:48:17.477Z,28.58
2022-08-17T19:50:56.460Z,28.37
2022-08-17T19:54:04.347Z,28.37
2022-08-17T19:56:43.305Z,27.98
2022-08-17T19:59:25.490Z,28.08
2022-08-17T20:02:01.096Z,28.02
2022-08-17T20:04:42.250Z,28.01
2022-08-17T20:07:18.079Z,27.86
2022-08-17T20:09:54.667Z,28.02
2022-08-17T20:12:31.039Z,28.05
2022-08-17T20:15:07.481Z,27.83
2022-08-17T20:17:41.939Z,27.88
2022-08-17T20:20:31.488Z,27.88
2022-08-17T20:23:09.718Z,27.89
2022-08-17T20:25:48.016Z,27.75
2022-08-17T20:28:25.344Z,27.69
2022-08-17T20:30:55.710Z,27.65
2022-08-17T20:33:29.045Z,27.59
2022-08-17T20:36:19.015Z,27.63
2022-08-17T20:38:52.146Z,27.68
2022-08-17T20:41:24.408Z,27.69
2022-08-17T20:44:06.473Z,27.63
2022-08-17T20:46:54.707Z,27.63
2022-08-17T20:49:30.027Z,27.65
2022-08-17T20:52:10.004Z,27.62
2022-08-17T20:54:52.972Z,27.64
2022-08-17T20:57:50.149Z,27.61
2022-08-17T21:00:50.260Z,27.54
2022-08-17T21:03:52.086Z,27.44
2022-08-17T21:06:25.491Z,27.33
2022-08-17T21:09:01.888Z,27.30
2022-08-17T21:12:02.814Z,27.34
2022-08-17T21:14:43.766Z,27.32
2022-08-17T21:17:38.584Z,27.25
2022-08-17T21:20:17.680Z,27.20
2022-08-17T21:23:03.316Z,27.15
2022-08-17T21:26:00.168Z,27.14
2022-08-17T21:29:01.117Z,27.09
2022-08-17T21:31:37.695Z,27.13
2022-08-17T21:34:29.404Z,27.13
2022-08-17T21:37:34.944Z,27.08
2022-08-17T21:40:26.253Z,27.01
2022-08-17T21:42:59.146Z,26.94
2022-08-17T21:45:35.147Z,26.81
2022-08-17T21:48:15.658Z,26.75
2022-08-17T21:50:47.733Z,26.82
2022-08-17T21:53:33.041Z,26.78
2022-08-17T21:56:03.869Z,26.70
2022-08-17T21:58:40.399Z,26.72
2022-08-17T22:01:24.485Z,26.54
2022-08-17T22:04:01.333Z,26.61
2022-08-17T22:06:36.013Z,26.61
2022-08-17T22:09:17.828Z,26.65
2022-08-17T22:12:00.824Z,26.54
2022-08-17T22:14:52.198Z,26.37
2022-08-17T22:17:26.674Z,26.37
2022-08-17T22:19:59.412Z,26.38
2022-08-17T22:22:57.289Z,26.31
2022-08-17T22:25:31.520Z,26.33
2022-08-17T22:28:04.158Z,26.35
2022-08-17T22:30:39.928Z,26.26
2022-08-17T22:33:39.745Z,26.25
2022-08-17T22:36:25.648Z,26.21
2022-08-17T22:38:58.090Z,26.13
2022-08-17T22:41:41.289Z,26.15
2022-08-17T22:44:19.031Z,26.18
2022-08-17T22:46:59.625Z,26.10
2022-08-17T22:49:34.298Z,26.17
2022-08-17T22:52:08.025Z,26.14
2022-08-17T22:54:50.514Z,26.13
2022-08-17T22:57:39.313Z,26.09
2022-08-17T23:00:31.595Z,26.04
2022-08-17T23:03:20.559Z,26.02
2022-08-17T23:06:05.044Z,25.95
2022-08-17T23:08:38.528Z,26.00
2022-08-17T23:11:09.405Z,25.92
2022-08-17T23:13:42.399Z,25.90
2022-08-17T23:16:13.481Z,25.94
2022-08-17T23:18:43.761Z,26.02
2022-08-17T23:21:13.901Z,26.02
2022-08-17T23:23:55.952Z,25.91
2022-08-17T23:26:27.816Z,25.96
2022-08-17T23:29:04.443Z,25.95
2022-08-17T23:31:39.107Z,25.94
2022-08-17T23:34:13.061Z,25.93
2022-08-17T23:36:52.546Z,25.89
2022-08-17T23:39:28.089Z,25.79
2022-08-17T23:41:59.221Z,25.76
2022-08-17T23:44:32.843Z,25.71
2022-08-17T23:47:03.762Z,25.69
2022-08-17T23:49:36.225Z,25.63
2022-08-17T23:52:12.747Z,25.69
2022-08-17T23:54:47.237Z,25.64
2022-08-17T23:57:19.415Z,25.64
2022-08-17T23:59:52.433Z,25.58
